Time;durP1;ratioP1;P1;durP2;ratioP2;P2;SDS_P1;SDS_P2;PMS_P1;PMS_P2;Temp;Humidity;BMP_temperature;BMP_pressure;BME280_temperature;BME280_humidity;BME280_pressure;Samples;Min_cycle;Max_cycle;Signal;HPM_P1;HPM_P2
2021/10/04 04:15:28;;;;;;;0.55;0.55;;;;;;;12.51;99.45;98834.47;5928611;23;20204;-73
2021/10/04 04:17:54;;;;;;;0.20;0.20;;;;;;;12.58;99.18;98841.22;4993674;28;20211;-73
2021/10/04 04:20:19;;;;;;;0.22;0.22;;;;;;;12.59;99.75;98842.94;4993615;28;20066;-73
2021/10/04 04:22:45;;;;;;;0.40;0.40;;;;;;;12.54;99.17;98839.59;4993377;28;20029;-73
2021/10/04 04:25:12;;;;;;;0.20;0.20;;;;;;;12.68;98.40;98854.00;4993677;28;20029;-73
2021/10/04 04:27:37;;;;;;;0.45;0.45;;;;;;;12.78;98.49;98858.06;4986267;28;20027;-73
2021/10/04 04:30:07;;;;;;;0.55;0.55;;;;;;;12.78;96.99;98858.06;4974083;28;20501;-73
2021/10/04 04:32:33;;;;;;;0.20;0.20;;;;;;;12.70;96.75;98871.25;4978509;28;20030;-73
2021/10/04 04:35:05;;;;;;;0.38;0.38;;;;;;;12.60;97.67;98881.03;4979920;28;20050;-74
2021/10/04 04:37:30;;;;;;;0.20;0.20;;;;;;;12.77;99.60;98884.97;4983827;28;20084;-75
2021/10/04 04:39:56;;;;;;;0.32;0.32;;;;;;;12.88;99.10;98884.69;4982604;28;20034;-75
2021/10/04 04:42:21;;;;;;;0.20;0.20;;;;;;;12.97;98.39;98869.69;4976671;28;20025;-75
2021/10/04 04:44:46;;;;;;;0.30;0.30;;;;;;;12.55;98.61;98862.09;4982065;28;20022;-75
2021/10/04 04:47:12;;;;;;;0.20;0.20;;;;;;;12.41;99.15;98856.38;4978123;28;20472;-75
2021/10/04 04:49:37;;;;;;;0.20;0.20;;;;;;;12.72;99.36;98863.44;4980432;28;20046;-75
2021/10/04 04:52:03;;;;;;;1.45;0.95;;;;;;;12.76;98.50;98870.25;4975551;28;20015;-75
2021/10/04 04:54:28;;;;;;;0.20;0.20;;;;;;;12.72;99.15;98879.03;4976624;28;20026;-75
2021/10/04 04:56:59;;;;;;;0.50;0.50;;;;;;;12.77;99.12;98874.56;4978564;28;20476;-75
2021/10/04 04:59:24;;;;;;;0.30;0.30;;;;;;;12.76;99.20;98865.03;4982813;28;20026;-75
2021/10/04 05:01:50;;;;;;;0.30;0.30;;;;;;;12.64;98.87;98870.56;4979290;28;20025;-75
2021/10/04 05:04:15;;;;;;;0.38;0.38;;;;;;;12.72;100.00;98879.03;4978617;28;20023;-75
2021/10/04 05:06:40;;;;;;;0.20;0.20;;;;;;;12.85;100.00;98880.41;4984386;28;20029;-75
2021/10/04 05:09:06;;;;;;;0.20;0.20;;;;;;;12.71;99.96;98883.34;4978831;28;20019;-74
2021/10/04 05:11:31;;;;;;;0.40;0.40;;;;;;;12.63;99.75;98889.66;4975399;28;20163;-75
2021/10/04 05:13:57;;;;;;;0.25;0.25;;;;;;;12.51;100.00;98896.84;4972317;28;20392;-74
2021/10/04 05:16:22;;;;;;;0.40;0.40;;;;;;;12.38;100.00;98905.84;4979095;28;20046;-75
2021/10/04 05:18:48;;;;;;;0.60;0.60;;;;;;;12.19;100.00;98904.56;4973985;28;20132;-75
2021/10/04 05:21:13;;;;;;;0.20;0.20;;;;;;;12.06;100.00;98904.81;4974202;28;20050;-73
2021/10/04 05:23:39;;;;;;;0.63;0.63;;;;;;;11.98;100.00;98906.72;4977667;28;20504;-73
2021/10/04 05:26:04;;;;;;;0.30;0.30;;;;;;;11.90;100.00;98913.81;4982918;28;20483;-74
2021/10/04 05:28:30;;;;;;;0.30;0.30;;;;;;;11.97;100.00;98912.78;4977239;28;20399;-74
2021/10/04 05:30:55;;;;;;;0.30;0.30;;;;;;;11.90;100.00;98908.63;4976562;28;20105;-74
2021/10/04 05:33:20;;;;;;;0.47;0.47;;;;;;;12.21;100.00;98902.75;4975829;28;20063;-73
2021/10/04 05:35:46;;;;;;;0.30;0.30;;;;;;;12.25;100.00;98910.44;4986104;28;20027;-73
2021/10/04 05:38:12;;;;;;;0.40;0.40;;;;;;;12.31;100.00;98915.50;4977926;28;20100;-71
2021/10/04 05:40:37;;;;;;;3.40;1.33;;;;;;;12.43;100.00;98924.78;4980717;28;20037;-71
2021/10/04 05:43:03;;;;;;;0.30;0.30;;;;;;;12.50;99.77;98931.53;4977842;28;20479;-72
2021/10/04 05:45:28;;;;;;;0.43;0.43;;;;;;;12.54;98.53;98935.75;4975962;28;20076;-71
2021/10/04 05:47:53;;;;;;;0.20;0.20;;;;;;;12.43;98.30;98939.50;4979742;28;20018;-71
2021/10/04 05:50:19;;;;;;;0.30;0.30;;;;;;;12.42;99.15;98943.81;4981375;28;20113;-72
2021/10/04 05:52:44;;;;;;;0.65;0.50;;;;;;;12.37;99.10;98948.28;4974701;28;20040;-73
2021/10/04 05:55:11;;;;;;;0.20;0.20;;;;;;;12.29;100.00;98950.22;4982272;28;20031;-74
2021/10/04 05:57:37;;;;;;;0.43;0.43;;;;;;;12.52;98.87;98950.56;4978568;28;20033;-73
2021/10/04 06:00:07;;;;;;;0.30;0.30;;;;;;;12.52;98.58;98945.34;4978930;28;20101;-73
2021/10/04 06:02:32;;;;;;;0.20;0.20;;;;;;;12.44;98.89;98947.25;4979782;28;20025;-73
2021/10/04 06:04:57;;;;;;;0.20;0.20;;;;;;;12.40;99.45;98950.81;4979529;28;20464;-73
2021/10/04 06:07:23;;;;;;;0.40;0.40;;;;;;;12.39;99.43;98949.13;4977419;28;20023;-73
2021/10/04 06:09:48;;;;;;;0.35;0.35;;;;;;;12.25;100.00;98959.81;4976307;28;20106;-73
2021/10/04 06:12:13;;;;;;;0.30;0.30;;;;;;;12.53;100.00;98957.47;4979963;28;20408;-71
2021/10/04 06:14:39;;;;;;;0.70;0.70;;;;;;;12.55;100.00;98960.84;4976234;28;20650;-71
2021/10/04 06:17:04;;;;;;;1.98;1.77;;;;;;;12.47;100.00;98965.38;4980171;28;20030;-71
2021/10/04 06:19:30;;;;;;;0.40;0.40;;;;;;;12.58;100.00;98966.00;4975784;28;20026;-71
2021/10/04 06:21:55;;;;;;;0.50;0.50;;;;;;;12.67;100.00;98964.06;4979135;28;20015;-71
2021/10/04 06:24:20;;;;;;;1.08;0.60;;;;;;;12.63;100.00;98968.50;4973109;28;20460;-71
2021/10/04 06:26:46;;;;;;;0.50;0.50;;;;;;;12.49;100.00;98971.41;4987865;28;20030;-71
2021/10/04 06:29:12;;;;;;;0.47;0.47;;;;;;;12.50;100.00;98967.91;4987267;28;20026;-71
2021/10/04 06:31:37;;;;;;;0.20;0.20;;;;;;;12.67;100.00;98969.25;4978791;28;20023;-71
2021/10/04 06:34:03;;;;;;;0.40;0.40;;;;;;;12.78;100.00;98967.28;4979761;28;20062;-71
2021/10/04 06:36:29;;;;;;;0.73;0.73;;;;;;;12.78;100.00;98968.13;4981846;28;20037;-71
2021/10/04 06:38:54;;;;;;;0.77;0.77;;;;;;;12.72;100.00;98967.44;4980937;28;20471;-71
2021/10/04 06:41:19;;;;;;;0.38;0.38;;;;;;;12.73;100.00;98974.34;4978507;28;20110;-71
2021/10/04 06:43:45;;;;;;;0.50;0.50;;;;;;;12.92;99.63;98970.41;4975447;28;20027;-71
2021/10/04 06:46:10;;;;;;;0.30;0.30;;;;;;;12.83;99.53;98976.66;4980266;28;20109;-71
2021/10/04 06:48:37;;;;;;;0.43;0.43;;;;;;;12.77;100.00;98981.19;4983268;28;20392;-71
2021/10/04 06:51:03;;;;;;;0.35;0.35;;;;;;;12.70;100.00;98992.59;4980774;28;20057;-74
2021/10/04 06:53:28;;;;;;;0.40;0.40;;;;;;;12.51;100.00;98984.34;4977165;28;20034;-74
2021/10/04 06:55:53;;;;;;;0.50;0.50;;;;;;;12.42;100.00;98994.94;4983805;28;20023;-75
2021/10/04 06:58:19;;;;;;;0.43;0.43;;;;;;;12.37;100.00;99005.44;4978557;28;20026;-74
2021/10/04 07:00:44;;;;;;;0.30;0.30;;;;;;;12.25;100.00;99013.50;4982043;28;20150;-74
2021/10/04 07:03:09;;;;;;;0.40;0.40;;;;;;;12.28;100.00;99013.44;4980957;28;20101;-74
2021/10/04 07:05:35;;;;;;;0.43;0.43;;;;;;;12.42;100.00;99011.41;4980649;28;20026;-75
2021/10/04 07:08:00;;;;;;;0.25;0.25;;;;;;;12.39;100.00;99021.03;4987251;28;20018;-74
2021/10/04 07:10:26;;;;;;;3.10;2.88;;;;;;;12.41;100.00;99025.28;4978939;28;20023;-74
2021/10/04 07:12:52;;;;;;;1.08;1.08;;;;;;;12.44;100.00;99030.44;4981154;28;20019;-74
2021/10/04 07:15:17;;;;;;;0.65;0.65;;;;;;;12.42;100.00;99034.78;4981083;28;20026;-74
2021/10/04 07:17:44;;;;;;;0.60;0.60;;;;;;;12.55;100.00;99030.19;4982940;28;20038;-74
2021/10/04 07:20:10;;;;;;;1.95;0.45;;;;;;;12.57;100.00;99031.88;4981464;28;20030;-74
2021/10/04 07:22:36;;;;;;;0.40;0.40;;;;;;;12.52;100.00;99032.84;4981542;28;20038;-74
2021/10/04 07:25:02;;;;;;;0.30;0.30;;;;;;;12.58;100.00;99036.19;4976680;28;20019;-74
2021/10/04 07:27:27;;;;;;;0.77;0.77;;;;;;;12.71;100.00;99043.69;4981023;28;20037;-74
2021/10/04 07:29:52;;;;;;;0.30;0.30;;;;;;;12.72;100.00;99048.03;4984276;28;20018;-74
2021/10/04 07:32:18;;;;;;;0.50;0.50;;;;;;;12.60;100.00;99052.59;4981932;28;20084;-74
2021/10/04 07:34:43;;;;;;;0.30;0.30;;;;;;;12.53;100.00;99056.22;4981900;28;20438;-74
2021/10/04 07:37:08;;;;;;;0.40;0.40;;;;;;;12.55;99.54;99049.22;4978620;28;20487;-74
2021/10/04 07:39:34;;;;;;;0.22;0.22;;;;;;;12.73;99.58;99053.19;4987033;28;20539;-74
2021/10/04 07:42:00;;;;;;;0.20;0.20;;;;;;;12.87;100.00;99060.69;4974496;28;20098;-73
2021/10/04 07:44:26;;;;;;;0.40;0.40;;;;;;;12.94;98.63;99067.44;4977428;28;20054;-74
2021/10/04 07:46:53;;;;;;;0.20;0.20;;;;;;;12.75;97.46;99068.75;4981791;28;20026;-74
2021/10/04 07:49:19;;;;;;;0.40;0.40;;;;;;;13.07;97.48;99058.47;4985207;28;20027;-74
2021/10/04 07:51:44;;;;;;;0.25;0.25;;;;;;;12.93;97.19;99059.69;4982736;28;20034;-74
2021/10/04 07:54:10;;;;;;;0.20;0.20;;;;;;;12.99;97.79;99076.00;4983069;28;20114;-74
2021/10/04 07:56:38;;;;;;;0.20;0.20;;;;;;;12.68;99.06;99085.38;4982208;28;20372;-74
2021/10/04 07:59:05;;;;;;;0.28;0.28;;;;;;;12.65;98.94;99106.22;4977517;28;20023;-74
2021/10/04 08:01:32;;;;;;;0.30;0.30;;;;;;;12.64;100.00;99099.31;4983597;28;20034;-74
2021/10/04 08:03:57;;;;;;;0.50;0.50;;;;;;;12.69;100.00;99102.69;4982748;28;20022;-74
2021/10/04 08:06:22;;;;;;;0.20;0.20;;;;;;;12.52;100.00;99106.50;4981256;28;20018;-74
2021/10/04 08:08:48;;;;;;;0.20;0.20;;;;;;;12.26;99.66;99108.75;4976965;28;20045;-72
2021/10/04 08:11:13;;;;;;;0.25;0.25;;;;;;;12.38;100.00;99118.91;4984023;28;20058;-73
2021/10/04 08:13:39;;;;;;;0.20;0.20;;;;;;;12.82;99.17;99119.75;4978731;28;20027;-73
2021/10/04 08:16:06;;;;;;;0.20;0.20;;;;;;;12.84;97.76;99112.75;4985885;28;20030;-72
2021/10/04 08:18:31;;;;;;;0.30;0.30;;;;;;;12.97;96.25;99119.41;4979347;28;20054;-73
2021/10/04 08:20:57;;;;;;;0.40;0.40;;;;;;;12.78;96.67;99107.69;4979435;28;20049;-73
2021/10/04 08:23:22;;;;;;;0.20;0.20;;;;;;;12.72;97.28;99105.22;4981256;28;20014;-72
2021/10/04 08:25:47;;;;;;;0.40;0.40;;;;;;;12.92;95.51;99110.84;4976931;28;20022;-73
2021/10/04 08:28:13;;;;;;;0.30;0.30;;;;;;;12.63;95.80;99113.22;4975783;28;20444;-72
2021/10/04 08:30:38;;;;;;;0.20;0.20;;;;;;;12.69;95.73;99115.69;4984311;28;20018;-72
2021/10/04 08:33:03;;;;;;;0.22;0.22;;;;;;;12.69;96.11;99118.28;4988674;28;20022;-72
2021/10/04 08:35:29;;;;;;;0.40;0.40;;;;;;;12.59;96.57;99125.41;4979183;28;20562;-72
2021/10/04 08:37:54;;;;;;;1.35;0.45;;;;;;;12.71;96.92;99137.28;4973883;28;20029;-72
2021/10/04 08:40:20;;;;;;;0.43;0.40;;;;;;;12.69;95.64;99133.88;4977901;28;20033;-72
2021/10/04 08:42:46;;;;;;;0.20;0.20;;;;;;;12.83;96.74;99132.69;4977349;28;20018;-72
2021/10/04 08:45:12;;;;;;;0.20;0.20;;;;;;;12.85;98.44;99130.06;4974804;28;20015;-72
2021/10/04 08:47:39;;;;;;;0.20;0.20;;;;;;;12.92;96.44;99131.66;4975042;28;20015;-72
2021/10/04 08:50:15;;;;;;;0.47;0.47;;;;;;;12.84;95.56;99129.19;4983554;28;20026;-72
2021/10/04 08:52:42;;;;;;;0.20;0.20;;;;;;;12.89;95.88;99136.91;4975457;28;20544;-72
2021/10/04 08:55:08;;;;;;;0.20;0.20;;;;;;;12.88;95.60;99140.41;4979219;28;20073;-72
2021/10/04 08:57:33;;;;;;;0.20;0.20;;;;;;;12.80;96.48;99139.69;4984468;28;20105;-71
2021/10/04 08:59:58;;;;;;;0.20;0.20;;;;;;;12.74;96.21;99147.63;4975754;28;20042;-72
2021/10/04 09:02:30;;;;;;;0.25;0.25;;;;;;;12.50;97.69;99149.84;4981768;28;20025;-72
2021/10/04 09:05:07;;;;;;;1.35;1.00;;;;;;;13.03;97.32;99145.25;4979435;28;20031;-72
2021/10/04 09:07:50;;;;;;;0.20;0.20;;;;;;;12.96;94.36;99141.09;4980355;28;20027;-71
2021/10/04 09:10:26;;;;;;;0.20;0.20;;;;;;;13.04;94.48;99141.78;4978688;28;20026;-71
2021/10/04 09:13:06;;;;;;;0.20;0.20;;;;;;;13.12;93.43;99142.47;4980858;28;20023;-71
2021/10/04 09:15:31;;;;;;;0.35;0.35;;;;;;;13.15;92.78;99144.16;4986850;28;20069;-72
2021/10/04 09:18:00;;;;;;;0.20;0.20;;;;;;;13.34;93.57;99134.19;4978693;28;20109;-72
2021/10/04 09:20:45;;;;;;;0.38;0.38;;;;;;;13.57;92.95;99134.50;4973862;28;20487;-72
2021/10/04 09:23:28;;;;;;;0.20;0.20;;;;;;;13.53;90.89;99151.06;4980687;28;20023;-71
2021/10/04 09:25:53;;;;;;;0.20;0.20;;;;;;;13.55;90.35;99149.31;4979947;28;20113;-72
2021/10/04 09:28:39;;;;;;;0.20;0.20;;;;;;;13.72;90.16;99145.44;4982469;28;20328;-72
2021/10/04 09:31:36;;;;;;;0.40;0.40;;;;;;;13.97;89.70;99143.91;4975075;28;20058;-72
2021/10/04 09:34:18;;;;;;;0.22;0.22;;;;;;;14.13;88.53;99147.84;4976675;28;20065;-71
2021/10/04 09:36:51;;;;;;;0.38;0.30;;;;;;;14.22;86.80;99149.34;4976902;28;20117;-72
2021/10/04 09:39:31;;;;;;;0.30;0.30;;;;;;;14.22;88.18;99156.31;4982139;28;20102;-72
2021/10/04 09:42:01;;;;;;;;;;;;;;;14.28;88.25;99145.72;4978847;28;20025;-72
2021/10/04 09:44:48;;;;;;;0.20;0.20;;;;;;;14.08;88.55;99154.06;4974257;28;19996;-72
2021/10/04 09:47:15;;;;;;;0.50;0.50;;;;;;;14.08;87.84;99160.13;4979744;28;20018;-74
2021/10/04 09:50:01;;;;;;;0.88;0.43;;;;;;;14.14;88.55;99159.13;4980665;28;20034;-74
2021/10/04 09:52:43;;;;;;;0.20;0.20;;;;;;;14.17;88.44;99158.16;4984985;28;20030;-78
2021/10/04 09:55:16;;;;;;;1.27;0.70;;;;;;;14.30;86.94;99154.34;4975880;28;20041;-77
2021/10/04 09:57:42;;;;;;;0.20;0.20;;;;;;;14.49;86.44;99158.19;4979159;28;20235;-77
2021/10/04 10:00:08;;;;;;;0.40;0.40;;;;;;;14.37;85.18;99161.13;4974102;28;20255;-78
2021/10/04 10:02:33;;;;;;;0.68;0.68;;;;;;;14.09;86.66;99161.84;4973740;28;20034;-78
2021/10/04 10:04:59;;;;;;;0.30;0.30;;;;;;;14.26;88.40;99155.31;4979602;28;20464;-77
2021/10/04 10:07:24;;;;;;;0.20;0.20;;;;;;;14.28;88.67;99161.34;4984199;28;20172;-77
2021/10/04 10:09:50;;;;;;;0.20;0.20;;;;;;;14.44;87.64;99152.22;4979745;28;20522;-78
2021/10/04 10:12:16;;;;;;;0.20;0.20;;;;;;;14.43;84.95;99158.34;4984127;28;20041;-78
2021/10/04 10:14:44;;;;;;;0.20;0.20;;;;;;;14.48;86.34;99161.69;4984985;28;20489;-78
2021/10/04 10:17:16;;;;;;;0.20;0.20;;;;;;;14.54;85.20;99158.06;4988309;28;20038;-79
2021/10/04 10:19:43;;;;;;;0.88;0.73;;;;;;;14.35;86.31;99152.47;4978155;28;20027;-78
2021/10/04 10:22:11;;;;;;;0.30;0.30;;;;;;;14.56;86.52;99149.31;4975661;28;20098;-77
2021/10/04 10:24:36;;;;;;;0.20;0.20;;;;;;;14.74;86.39;99152.28;4981167;28;20030;-78
2021/10/04 10:27:03;;;;;;;0.20;0.20;;;;;;;14.58;85.27;99150.13;4977244;28;20415;-77
2021/10/04 10:29:29;;;;;;;0.60;0.60;;;;;;;14.44;86.08;99148.75;4992686;23;20014;-74
2021/10/04 10:31:55;;;;;;;0.25;0.25;;;;;;;14.53;87.02;99149.38;4980390;28;20034;-74
2021/10/04 10:34:23;;;;;;;0.10;0.10;;;;;;;14.63;86.46;99147.38;4986216;28;20388;-72
2021/10/04 10:36:57;;;;;;;1.13;0.82;;;;;;;14.52;85.50;99145.06;4983285;28;20041;-72
2021/10/04 10:39:44;;;;;;;0.43;0.43;;;;;;;14.45;87.63;99142.63;4986247;28;20078;-72
2021/10/04 10:42:12;;;;;;;0.30;0.30;;;;;;;14.81;85.68;99141.63;4983469;28;20499;-72
2021/10/04 10:44:56;;;;;;;0.30;0.30;;;;;;;15.12;83.60;99136.34;4983081;28;20035;-72
2021/10/04 10:47:37;;;;;;;0.20;0.20;;;;;;;15.49;79.70;99134.34;4980746;28;20444;-72
2021/10/04 10:50:12;;;;;;;0.20;0.20;;;;;;;15.72;80.38;99131.03;4981802;28;20023;-72
2021/10/04 10:52:55;;;;;;;0.20;0.20;;;;;;;15.57;81.34;99122.75;4978212;28;20032;-72
2021/10/04 10:55:21;;;;;;;0.20;0.20;;;;;;;16.01;76.77;99122.19;4979918;28;20122;-72
2021/10/04 10:57:49;;;;;;;0.10;0.10;;;;;;;16.46;76.76;99114.47;4978959;28;20516;-72
2021/10/04 11:00:26;;;;;;;0.10;0.10;;;;;;;16.54;77.79;99111.59;4975371;28;20381;-72
2021/10/04 11:02:54;;;;;;;0.15;0.15;;;;;;;16.71;72.02;99117.03;4980245;28;20018;-72
2021/10/04 11:05:38;;;;;;;0.10;0.10;;;;;;;16.15;73.62;99112.97;4987803;28;20022;-74
2021/10/04 11:08:08;;;;;;;0.88;0.20;;;;;;;16.14;76.69;99126.06;4981657;28;20041;-74
2021/10/04 11:10:35;;;;;;;0.17;0.17;;;;;;;16.08;76.08;99127.13;4974169;28;20019;-74
2021/10/04 11:13:09;;;;;;;0.40;0.20;;;;;;;15.47;74.64;99136.13;4975886;28;20109;-73
2021/10/04 11:15:36;;;;;;;0.20;0.20;;;;;;;15.41;80.52;99137.19;4979535;28;20502;-73
2021/10/04 11:18:01;;;;;;;0.10;0.10;;;;;;;15.29;79.56;99137.59;4977704;28;20391;-74
2021/10/04 11:20:27;;;;;;;1.23;1.20;;;;;;;15.12;82.42;99133.72;4973293;28;20026;-73
2021/10/04 11:23:13;;;;;;;0.57;0.57;;;;;;;15.34;80.74;99131.31;4975634;28;20033;-74
2021/10/04 11:25:47;;;;;;;0.10;0.10;;;;;;;15.45;80.45;99133.56;4972495;28;20023;-74
2021/10/04 11:28:16;;;;;;;0.13;0.13;;;;;;;15.11;80.26;99133.78;4983015;28;20027;-75
2021/10/04 11:31:36;;;;;;;0.20;0.20;;;;;;;14.97;81.65;99118.53;5126524;27;20365;-72
2021/10/04 11:34:07;;;;;;;0.10;0.10;;;;;;;15.03;80.50;99125.31;5108335;28;20469;-72
2021/10/04 11:36:47;;;;;;;0.13;0.13;;;;;;;14.95;86.14;99117.75;5115414;28;20028;-72
2021/10/04 11:39:30;;;;;;;6.78;3.80;;;;;;;15.30;81.61;99111.44;5108138;28;20153;-72
2021/10/04 11:42:05;;;;;;;0.40;0.40;;;;;;;15.08;81.77;99107.75;5108106;28;20111;-72
2021/10/04 11:44:34;;;;;;;0.10;0.10;;;;;;;14.88;81.06;99105.78;5110554;28;20020;-72
2021/10/04 11:47:03;;;;;;;3.95;2.85;;;;;;;14.74;84.30;99110.53;5108817;28;20020;-72
2021/10/04 11:49:50;;;;;;;0.40;0.40;;;;;;;15.06;84.26;99107.81;5112647;28;20088;-71
2021/10/04 11:52:18;;;;;;;0.35;0.35;;;;;;;15.34;83.75;99093.91;5111300;28;20027;-72
2021/10/04 11:54:52;;;;;;;0.10;0.10;;;;;;;15.31;81.96;99094.00;5116741;28;20098;-72
2021/10/04 11:57:20;;;;;;;0.15;0.15;;;;;;;15.54;80.01;99091.50;5114114;28;20035;-72
2021/10/04 11:59:55;;;;;;;0.10;0.10;;;;;;;15.40;79.36;99083.25;5115339;28;20353;-72
2021/10/04 12:02:26;;;;;;;0.10;0.10;;;;;;;15.27;78.48;99089.78;5096157;28;20023;-72
2021/10/04 12:05:10;;;;;;;0.13;0.13;;;;;;;15.24;79.21;99087.28;5110601;28;20400;-71
2021/10/04 12:07:37;;;;;;;0.20;0.20;;;;;;;14.54;82.84;99085.91;5118265;28;20026;-71
2021/10/04 12:10:03;;;;;;;0.10;0.10;;;;;;;14.70;85.10;99101.09;5109773;28;20092;-72
2021/10/04 12:12:37;;;;;;;1.55;1.42;;;;;;;15.07;83.64;99091.25;5110112;28;20028;-71
2021/10/04 12:15:05;;;;;;;0.13;0.13;;;;;;;15.10;80.96;99082.50;5113778;28;20483;-72
2021/10/04 12:17:36;;;;;;;0.17;0.17;;;;;;;15.24;82.02;99076.84;5115003;28;20038;-72
2021/10/04 12:20:03;;;;;;;0.95;0.45;;;;;;;15.12;81.77;99083.28;5112989;28;20476;-72
2021/10/04 12:22:33;;;;;;;0.20;0.20;;;;;;;14.80;79.47;99081.69;5114736;28;20032;-71
2021/10/04 12:24:59;;;;;;;0.20;0.20;;;;;;;14.62;81.02;99073.50;5119422;28;20387;-72
2021/10/04 12:27:24;;;;;;;0.13;0.13;;;;;;;15.19;81.82;99068.31;5113829;28;20024;-71
2021/10/04 12:30:01;;;;;;;0.35;0.32;;;;;;;15.56;80.34;99067.94;5112065;28;20034;-74
2021/10/04 12:32:37;;;;;;;0.20;0.20;;;;;;;15.52;82.03;99061.97;5111221;28;20073;-74
2021/10/04 12:35:22;;;;;;;0.20;0.20;;;;;;;15.11;83.91;99071.16;5109279;28;20016;-74
2021/10/04 12:37:55;;;;;;;0.10;0.10;;;;;;;15.65;80.52;99058.06;5109567;28;20023;-73
2021/10/04 12:40:45;;;;;;;0.10;0.10;;;;;;;15.90;80.08;99052.84;5106256;28;20453;-73
2021/10/04 12:43:24;;;;;;;0.30;0.30;;;;;;;15.75;77.13;99050.75;5086925;28;20020;-73
2021/10/04 12:46:07;;;;;;;0.17;0.17;;;;;;;15.73;78.02;99043.91;5097718;28;20055;-73
2021/10/04 12:48:38;;;;;;;0.17;0.17;;;;;;;15.67;80.45;99030.13;5097486;28;20391;-73
2021/10/04 12:51:18;;;;;;;1.08;0.80;;;;;;;15.79;79.91;99031.47;5094317;28;20024;-73
2021/10/04 12:53:53;;;;;;;0.20;0.20;;;;;;;16.27;74.78;99029.75;5097396;28;20028;-73
2021/10/04 12:56:29;;;;;;;0.20;0.20;;;;;;;16.16;72.53;99033.63;5094325;28;20040;-73
2021/10/04 12:59:04;;;;;;;0.25;0.25;;;;;;;16.26;73.77;99033.28;5095437;28;20028;-73
2021/10/04 13:01:30;;;;;;;0.13;0.13;;;;;;;16.45;77.23;99034.31;5091527;28;20020;-73
2021/10/04 13:04:01;;;;;;;1.30;0.80;;;;;;;16.44;71.12;99037.84;5093936;28;20169;-73
2021/10/04 13:06:32;;;;;;;0.20;0.20;;;;;;;15.92;74.17;99039.72;5097794;28;20059;-73
2021/10/04 13:08:59;;;;;;;1.65;1.15;;;;;;;15.51;70.88;99060.25;5098327;28;20070;-77
2021/10/04 13:11:25;;;;;;;0.13;0.13;;;;;;;15.40;77.18;99062.38;5095833;28;20031;-74
2021/10/04 13:13:51;;;;;;;0.10;0.10;;;;;;;15.63;74.71;99054.66;5093236;28;20396;-74
2021/10/04 13:16:17;;;;;;;0.10;0.10;;;;;;;15.82;74.65;99048.81;5097218;28;20032;-74
2021/10/04 13:18:42;;;;;;;0.82;0.50;;;;;;;15.94;74.87;99043.13;5093374;28;20016;-73
2021/10/04 13:21:08;;;;;;;0.20;0.20;;;;;;;15.94;73.62;99037.91;5093469;28;20012;-74
2021/10/04 13:23:35;;;;;;;0.10;0.10;;;;;;;15.88;75.83;99052.03;5094191;28;20040;-73
2021/10/04 13:26:01;;;;;;;0.15;0.15;;;;;;;16.04;74.06;99047.13;5106034;28;20018;-72
2021/10/04 13:28:27;;;;;;;0.60;0.60;;;;;;;15.49;77.45;99056.84;5093407;28;20067;-72
2021/10/04 13:30:52;;;;;;;0.17;0.17;;;;;;;15.59;73.24;99050.41;5095530;28;20054;-72
2021/10/04 13:33:18;;;;;;;0.10;0.10;;;;;;;15.78;73.84;99041.97;5093361;28;20110;-71
2021/10/04 13:35:44;;;;;;;0.52;0.35;;;;;;;15.41;72.17;99051.88;5096426;28;20024;-72
2021/10/04 13:38:09;;;;;;;0.20;0.20;;;;;;;15.25;72.38;99036.78;5093181;28;20028;-70
2021/10/04 13:40:37;;;;;;;0.10;0.10;;;;;;;15.11;73.48;99035.44;5097158;28;20469;-68
2021/10/04 13:43:03;;;;;;;0.20;0.20;;;;;;;14.95;76.32;99031.63;5097603;28;20051;-70
2021/10/04 13:45:28;;;;;;;0.10;0.10;;;;;;;15.09;77.52;99018.16;5092802;28;20493;-70
2021/10/04 13:47:54;;;;;;;0.10;0.10;;;;;;;15.03;76.22;99006.13;5093075;28;20046;-72
2021/10/04 13:50:20;;;;;;;0.20;0.20;;;;;;;15.13;78.66;99004.97;5094495;28;20027;-70
2021/10/04 13:52:47;;;;;;;0.20;0.20;;;;;;;15.29;73.48;99017.50;5094730;28;20110;-69
2021/10/04 13:55:13;;;;;;;0.10;0.10;;;;;;;15.04;76.99;99007.88;5097294;28;20381;-70
2021/10/04 13:57:39;;;;;;;0.20;0.20;;;;;;;15.08;77.21;99019.88;5100626;28;20050;-69
2021/10/04 14:00:07;;;;;;;0.20;0.20;;;;;;;15.04;77.46;99022.66;5093549;28;20044;-69
2021/10/04 14:02:33;;;;;;;0.70;0.63;;;;;;;15.20;77.34;99021.25;5093632;28;20055;-70
2021/10/04 14:05:00;;;;;;;0.10;0.10;;;;;;;14.67;81.00;99017.75;5090960;28;20060;-69
2021/10/04 14:07:25;;;;;;;0.20;0.20;;;;;;;14.47;80.01;99013.94;5094847;28;20024;-70
2021/10/04 14:09:50;;;;;;;0.20;0.20;;;;;;;14.30;78.70;99003.16;5089427;28;20097;-70
2021/10/04 14:12:16;;;;;;;0.20;0.20;;;;;;;14.47;80.81;99011.34;5091739;28;20028;-67
2021/10/04 14:14:41;;;;;;;0.20;0.20;;;;;;;14.02;80.66;99009.19;5094509;28;20034;-66
2021/10/04 14:17:07;;;;;;;0.20;0.20;;;;;;;13.94;81.99;99000.72;5092562;28;20024;-66
2021/10/04 14:19:32;;;;;;;0.10;0.10;;;;;;;13.85;80.23;98991.41;5093513;28;20020;-69
2021/10/04 14:21:58;;;;;;;0.20;0.20;;;;;;;14.13;79.46;98985.44;5092158;28;20028;-70
2021/10/04 14:24:23;;;;;;;0.25;0.25;;;;;;;14.23;81.01;98992.06;5092629;28;20086;-69
2021/10/04 14:26:49;;;;;;;0.25;0.25;;;;;;;14.24;81.27;98995.53;5094961;28;20451;-70
2021/10/04 14:29:15;;;;;;;0.47;0.35;;;;;;;14.35;79.01;98985.63;5092413;28;20103;-70
2021/10/04 14:31:40;;;;;;;0.20;0.20;;;;;;;14.40;78.87;98988.94;5094395;28;20254;-70
2021/10/04 14:34:06;;;;;;;0.20;0.20;;;;;;;14.60;78.39;98991.88;5092524;28;20016;-70
2021/10/04 14:36:31;;;;;;;0.20;0.20;;;;;;;14.78;83.25;98989.56;5096859;28;20024;-70
2021/10/04 14:38:56;;;;;;;0.10;0.10;;;;;;;14.42;80.78;98991.53;5094172;28;20433;-72
2021/10/04 14:41:24;;;;;;;0.30;0.30;;;;;;;14.28;81.65;98986.72;5095258;28;20016;-72
2021/10/04 14:43:50;;;;;;;0.20;0.20;;;;;;;14.41;78.72;98990.69;5102551;28;20023;-70
2021/10/04 14:46:15;;;;;;;0.10;0.10;;;;;;;14.37;80.40;98986.44;5093957;28;20585;-70
2021/10/04 14:48:40;;;;;;;0.20;0.20;;;;;;;14.36;80.42;98987.38;5096190;28;20024;-70
2021/10/04 14:51:06;;;;;;;0.13;0.13;;;;;;;14.39;81.05;98982.03;5093358;28;20024;-70
2021/10/04 14:53:31;;;;;;;0.10;0.10;;;;;;;14.37;80.93;98976.03;5092294;28;20107;-70
2021/10/04 14:55:57;;;;;;;0.20;0.20;;;;;;;14.46;82.11;98972.28;5093803;28;20400;-70
2021/10/04 14:58:22;;;;;;;1.20;0.85;;;;;;;14.20;85.26;98971.31;5094773;28;20016;-70
2021/10/04 15:00:47;;;;;;;1.65;1.27;;;;;;;14.38;84.25;98970.75;5094697;28;20028;-70
2021/10/04 15:03:13;;;;;;;0.30;0.30;;;;;;;14.26;83.44;98970.25;5090982;28;20031;-70
2021/10/04 15:05:38;;;;;;;0.20;0.20;;;;;;;14.20;83.59;98975.66;5080494;28;20469;-70
2021/10/04 15:08:04;;;;;;;0.17;0.17;;;;;;;14.14;84.10;98976.69;5095019;28;20118;-71
2021/10/04 15:10:31;;;;;;;0.20;0.20;;;;;;;14.25;85.39;98968.56;5088491;28;20031;-70
2021/10/04 15:12:56;;;;;;;0.20;0.20;;;;;;;14.21;84.20;98972.16;5094341;28;20020;-70
2021/10/04 15:15:21;;;;;;;0.30;0.30;;;;;;;14.16;84.08;98967.06;5098390;28;20023;-70
2021/10/04 15:17:47;;;;;;;0.25;0.25;;;;;;;14.23;86.16;98970.38;5092760;28;20016;-70
2021/10/04 15:20:12;;;;;;;0.35;0.35;;;;;;;14.05;84.95;98967.41;5091375;28;20107;-70
2021/10/04 15:22:37;;;;;;;0.55;0.50;;;;;;;14.18;85.72;98972.25;5091891;28;20477;-69
2021/10/04 15:25:03;;;;;;;0.30;0.30;;;;;;;13.99;84.36;98977.16;5078797;28;20076;-69
2021/10/04 15:27:29;;;;;;;0.30;0.30;;;;;;;14.03;85.55;98984.84;5093725;28;20053;-69
2021/10/04 15:29:54;;;;;;;0.70;0.70;;;;;;;13.96;85.90;98983.28;5094509;28;20050;-69
2021/10/04 15:32:20;;;;;;;0.20;0.20;;;;;;;13.98;84.69;98975.44;5090879;28;20032;-69
2021/10/04 15:34:45;;;;;;;0.43;0.43;;;;;;;13.72;84.48;98979.63;5101165;28;20058;-69
2021/10/04 15:37:10;;;;;;;0.38;0.38;;;;;;;13.92;84.35;98984.25;5092661;28;20059;-71
2021/10/04 15:39:36;;;;;;;0.30;0.30;;;;;;;13.82;85.88;98980.22;5093657;28;20059;-72
2021/10/04 15:42:01;;;;;;;0.20;0.20;;;;;;;13.79;86.63;98975.09;5091361;28;20481;-71
2021/10/04 15:44:27;;;;;;;0.25;0.25;;;;;;;13.68;86.36;98977.13;5091283;28;20066;-71
2021/10/04 15:46:52;;;;;;;0.20;0.20;;;;;;;13.82;87.15;98982.81;5073549;28;20048;-71
2021/10/04 15:49:17;;;;;;;0.38;0.38;;;;;;;13.71;87.44;98982.28;5097350;28;20031;-71
2021/10/04 15:51:44;;;;;;;0.47;0.47;;;;;;;13.39;88.82;98970.97;5091285;28;20027;-72